Ionic United — V7QJ7 — position and weather

sailwx.info

Track history (hours):
 
Tides and Currents Weather Stations Pressure Air Temp Water Temp Dewpoint Dewpoint Depression Visibility Wind Speed Wind Dir Waves Ship Positions

Ionic United

Last reported at 2018-Apr-04 23:37 UTC. Time now 2018-Apr-24 16:42 UTC.
Position S 30°43' E 030°40'.
Warning: this ship's position is 19 days out of date.

Length 200 m; draft 7.1 m.

Type: Cargo ship. MMSI: 538006703.

Date/timePositionNaut miles runAvg speedWind from/ knotsBaromVisibWave heightAir tempDewpointWater temp
2018-Apr-04 23:37S 30°43' E 030°40'112.9
2018-Apr-04 23:30S 30°42' E 030°41'812.3
2018-Apr-04 22:51S 30°36' E 030°46'411.9
2018-Apr-04 22:30S 30°32' E 030°48'611.7
2018-Apr-04 22:00S 30°27' E 030°52'611.7
2018-Apr-04 21:30S 30°22' E 030°56'611.8
2018-Apr-04 21:00S 30°17' E 030°59'611.7
2018-Apr-04 20:30S 30°12' E 031°03'612.2
2018-Apr-04 20:00S 30°07' E 031°06'612.5
2018-Apr-04 19:30S 30°02' E 031°10'612.1
2018-Apr-04 19:00S 29°56' E 031°13'5 9.2
2018-Apr-04 18:28S 29°52' E 031°10'3 6.6
2018-Apr-04 18:00S 29°51' E 031°07'3 6.9
2018-Apr-04 17:30S 29°52' E 031°04'1 2.5
2018-Apr-04 17:00S 29°52' E 031°02'0 0.0
2018-Apr-04 16:30S 29°52' E 031°02'0 0.0
2018-Apr-04 16:00S 29°52' E 031°02'0 0.0
2018-Apr-04 15:30S 29°52' E 031°02'0 0.0
2018-Apr-04 15:00S 29°52' E 031°02'0 0.0
2018-Apr-04 14:30S 29°52' E 031°02'0 0.0
2018-Apr-04 14:00S 29°52' E 031°02'0 0.0
2018-Apr-04 13:30S 29°52' E 031°02'0 0.0
2018-Apr-04 13:00S 29°52' E 031°02'0 0.0
2018-Apr-04 12:30S 29°52' E 031°02'0 0.0
2018-Apr-04 11:57S 29°52' E 031°02'0 0.0
2018-Apr-04 11:30S 29°52' E 031°02'0 0.0
2018-Apr-04 11:00S 29°52' E 031°02'0 0.0
2018-Apr-04 10:30S 29°52' E 031°02'0 0.0
2018-Apr-04 10:00S 29°52' E 031°02'0 0.0
2018-Apr-04 09:30S 29°52' E 031°02'0 0.0
2018-Apr-04 09:00S 29°52' E 031°02'0 0.0
2018-Apr-04 08:27S 29°52' E 031°02'0 0.0
2018-Apr-04 08:00S 29°52' E 031°02'1 1.7
2018-Apr-04 07:30S 29°53' E 031°03'4 7.4
2018-Apr-04 07:00S 29°50' E 031°06'4 7.7
2018-Apr-04 06:30S 29°49' E 031°10'611.9
2018-Apr-04 06:00S 29°47' E 031°17'611.9
2018-Apr-04 05:30S 29°45' E 031°23'612.0
2018-Apr-04 05:00S 29°44' E 031°30'612.2
2018-Apr-04 04:30S 29°42' E 031°37'612.8
2018-Apr-04 04:00S 29°40' E 031°44'713.4
2018-Apr-04 03:30S 29°38' E 031°51'713.4
2018-Apr-04 03:00S 29°36' E 031°58'713.2
2018-Apr-04 02:30S 29°34' E 032°06'713.1
2018-Apr-04 02:00S 29°31' E 032°13'  
Track history (hours):
 
Tides and Currents Weather Stations Pressure Air Temp Water Temp Dewpoint Dewpoint Depression Visibility Wind Speed Wind Dir Waves Ship Positions

Ionic United

Last reported at 2018-Apr-04 23:37 UTC. Time now 2018-Apr-24 16:42 UTC.
Position S 30°43' E 030°40'.
Warning: this ship's position is 19 days out of date.

Length 200 m; draft 7.1 m.

Type: Cargo ship. MMSI: 538006703.

Date/timePositionNaut miles runAvg speedWind from/ knotsBaromVisibWave heightAir tempDewpointWater temp
2018-Apr-04 23:37S 30°43' E 030°40'112.9
2018-Apr-04 23:30S 30°42' E 030°41'812.3
2018-Apr-04 22:51S 30°36' E 030°46'411.9
2018-Apr-04 22:30S 30°32' E 030°48'611.7
2018-Apr-04 22:00S 30°27' E 030°52'611.7
2018-Apr-04 21:30S 30°22' E 030°56'611.8
2018-Apr-04 21:00S 30°17' E 030°59'611.7
2018-Apr-04 20:30S 30°12' E 031°03'612.2
2018-Apr-04 20:00S 30°07' E 031°06'612.5
2018-Apr-04 19:30S 30°02' E 031°10'612.1
2018-Apr-04 19:00S 29°56' E 031°13'5 9.2
2018-Apr-04 18:28S 29°52' E 031°10'3 6.6
2018-Apr-04 18:00S 29°51' E 031°07'3 6.9
2018-Apr-04 17:30S 29°52' E 031°04'1 2.5
2018-Apr-04 17:00S 29°52' E 031°02'0 0.0
2018-Apr-04 16:30S 29°52' E 031°02'0 0.0
2018-Apr-04 16:00S 29°52' E 031°02'0 0.0
2018-Apr-04 15:30S 29°52' E 031°02'0 0.0
2018-Apr-04 15:00S 29°52' E 031°02'0 0.0
2018-Apr-04 14:30S 29°52' E 031°02'0 0.0
2018-Apr-04 14:00S 29°52' E 031°02'0 0.0
2018-Apr-04 13:30S 29°52' E 031°02'0 0.0
2018-Apr-04 13:00S 29°52' E 031°02'0 0.0
2018-Apr-04 12:30S 29°52' E 031°02'0 0.0
2018-Apr-04 11:57S 29°52' E 031°02'0 0.0
2018-Apr-04 11:30S 29°52' E 031°02'0 0.0
2018-Apr-04 11:00S 29°52' E 031°02'0 0.0
2018-Apr-04 10:30S 29°52' E 031°02'0 0.0
2018-Apr-04 10:00S 29°52' E 031°02'0 0.0
2018-Apr-04 09:30S 29°52' E 031°02'0 0.0
2018-Apr-04 09:00S 29°52' E 031°02'0 0.0
2018-Apr-04 08:27S 29°52' E 031°02'0 0.0
2018-Apr-04 08:00S 29°52' E 031°02'1 1.7
2018-Apr-04 07:30S 29°53' E 031°03'4 7.4
2018-Apr-04 07:00S 29°50' E 031°06'4 7.7
2018-Apr-04 06:30S 29°49' E 031°10'611.9
2018-Apr-04 06:00S 29°47' E 031°17'611.9
2018-Apr-04 05:30S 29°45' E 031°23'612.0
2018-Apr-04 05:00S 29°44' E 031°30'612.2
2018-Apr-04 04:30S 29°42' E 031°37'612.8
2018-Apr-04 04:00S 29°40' E 031°44'713.4
2018-Apr-04 03:30S 29°38' E 031°51'713.4
2018-Apr-04 03:00S 29°36' E 031°58'713.2
2018-Apr-04 02:30S 29°34' E 032°06'713.1
2018-Apr-04 02:00S 29°31' E 032°13'  

Dump ship's entire track history